sensor_id;sensor_type;location;lat;lon;timestamp;P1;durP1;ratioP1;P2;durP2;ratioP2
28605;SDS011;46498;49.968;7.754;2022-11-15T00:04:46;26.95;;;15.73;;
28605;SDS011;46498;49.968;7.754;2022-11-15T00:10:06;28.35;;;15.40;;
28605;SDS011;46498;49.968;7.754;2022-11-15T00:15:26;34.67;;;17.25;;
28605;SDS011;46498;49.968;7.754;2022-11-15T00:20:45;41.22;;;19.42;;
28605;SDS011;46498;49.968;7.754;2022-11-15T00:26:05;37.75;;;20.90;;
28605;SDS011;46498;49.968;7.754;2022-11-15T00:31:25;41.58;;;21.55;;
28605;SDS011;46498;49.968;7.754;2022-11-15T00:36:44;42.78;;;21.12;;
28605;SDS011;46498;49.968;7.754;2022-11-15T00:42:04;41.20;;;22.00;;
28605;SDS011;46498;49.968;7.754;2022-11-15T00:47:23;42.53;;;21.48;;
28605;SDS011;46498;49.968;7.754;2022-11-15T00:52:43;40.03;;;20.67;;
28605;SDS011;46498;49.968;7.754;2022-11-15T00:58:02;39.97;;;20.37;;
28605;SDS011;46498;49.968;7.754;2022-11-15T01:03:22;39.00;;;20.15;;
28605;SDS011;46498;49.968;7.754;2022-11-15T01:08:42;40.75;;;20.33;;
28605;SDS011;46498;49.968;7.754;2022-11-15T01:14:01;33.92;;;16.95;;
28605;SDS011;46498;49.968;7.754;2022-11-15T01:19:21;38.03;;;20.55;;
28605;SDS011;46498;49.968;7.754;2022-11-15T01:24:41;35.78;;;18.02;;
28605;SDS011;46498;49.968;7.754;2022-11-15T01:30:00;31.62;;;17.80;;
28605;SDS011;46498;49.968;7.754;2022-11-15T01:35:20;29.50;;;16.48;;
28605;SDS011;46498;49.968;7.754;2022-11-15T01:40:40;34.13;;;17.12;;
28605;SDS011;46498;49.968;7.754;2022-11-15T01:46:21;30.52;;;16.70;;
28605;SDS011;46498;49.968;7.754;2022-11-15T01:51:44;31.42;;;17.00;;
28605;SDS011;46498;49.968;7.754;2022-11-15T01:57:06;32.60;;;16.85;;
28605;SDS011;46498;49.968;7.754;2022-11-15T02:02:28;33.70;;;16.10;;
28605;SDS011;46498;49.968;7.754;2022-11-15T02:07:48;35.10;;;16.60;;
28605;SDS011;46498;49.968;7.754;2022-11-15T02:13:08;27.85;;;16.20;;
28605;SDS011;46498;49.968;7.754;2022-11-15T02:18:30;27.20;;;16.12;;
28605;SDS011;46498;49.968;7.754;2022-11-15T02:23:57;33.45;;;17.23;;
28605;SDS011;46498;49.968;7.754;2022-11-15T02:32:25;27.85;;;16.02;;
28605;SDS011;46498;49.968;7.754;2022-11-15T02:46:19;32.83;;;16.55;;
28605;SDS011;46498;49.968;7.754;2022-11-15T02:52:17;31.80;;;17.55;;
28605;SDS011;46498;49.968;7.754;2022-11-15T02:57:51;31.85;;;17.10;;
28605;SDS011;46498;49.968;7.754;2022-11-15T03:03:24;28.65;;;15.45;;
28605;SDS011;46498;49.968;7.754;2022-11-15T03:10:26;25.50;;;13.95;;
28605;SDS011;46498;49.968;7.754;2022-11-15T03:16:07;26.02;;;13.98;;
28605;SDS011;46498;49.968;7.754;2022-11-15T03:21:41;27.13;;;13.65;;
28605;SDS011;46498;49.968;7.754;2022-11-15T03:27:04;22.20;;;12.37;;
28605;SDS011;46498;49.968;7.754;2022-11-15T03:32:30;20.33;;;11.83;;
28605;SDS011;46498;49.968;7.754;2022-11-15T03:37:57;17.98;;;10.52;;
28605;SDS011;46498;49.968;7.754;2022-11-15T03:45:12;18.85;;;10.90;;
28605;SDS011;46498;49.968;7.754;2022-11-15T03:50:41;19.27;;;10.60;;
28605;SDS011;46498;49.968;7.754;2022-11-15T03:56:02;13.45;;;7.45;;
28605;SDS011;46498;49.968;7.754;2022-11-15T04:01:22;15.60;;;8.25;;
28605;SDS011;46498;49.968;7.754;2022-11-15T04:06:42;13.95;;;8.30;;
28605;SDS011;46498;49.968;7.754;2022-11-15T04:12:02;15.90;;;9.57;;
28605;SDS011;46498;49.968;7.754;2022-11-15T04:17:22;22.98;;;12.13;;
28605;SDS011;46498;49.968;7.754;2022-11-15T04:22:41;18.50;;;11.30;;
28605;SDS011;46498;49.968;7.754;2022-11-15T04:28:19;26.12;;;12.25;;
28605;SDS011;46498;49.968;7.754;2022-11-15T04:33:39;23.27;;;13.30;;
28605;SDS011;46498;49.968;7.754;2022-11-15T04:38:58;24.55;;;13.93;;
28605;SDS011;46498;49.968;7.754;2022-11-15T04:44:18;26.80;;;15.57;;
28605;SDS011;46498;49.968;7.754;2022-11-15T04:49:37;24.23;;;14.27;;
28605;SDS011;46498;49.968;7.754;2022-11-15T04:54:57;22.35;;;13.88;;
28605;SDS011;46498;49.968;7.754;2022-11-15T05:00:16;29.25;;;15.15;;
28605;SDS011;46498;49.968;7.754;2022-11-15T05:05:36;24.75;;;15.43;;
28605;SDS011;46498;49.968;7.754;2022-11-15T05:10:56;29.35;;;15.50;;
28605;SDS011;46498;49.968;7.754;2022-11-15T05:16:15;24.52;;;14.82;;
28605;SDS011;46498;49.968;7.754;2022-11-15T05:21:35;26.35;;;14.18;;
28605;SDS011;46498;49.968;7.754;2022-11-15T05:26:55;27.25;;;15.50;;
28605;SDS011;46498;49.968;7.754;2022-11-15T05:32:15;24.92;;;14.63;;
28605;SDS011;46498;49.968;7.754;2022-11-15T05:37:35;26.90;;;14.07;;
28605;SDS011;46498;49.968;7.754;2022-11-15T05:42:55;29.02;;;14.90;;
28605;SDS011;46498;49.968;7.754;2022-11-15T05:48:15;29.45;;;15.23;;
28605;SDS011;46498;49.968;7.754;2022-11-15T05:53:35;31.37;;;16.05;;
28605;SDS011;46498;49.968;7.754;2022-11-15T05:58:56;26.58;;;14.18;;
28605;SDS011;46498;49.968;7.754;2022-11-15T06:04:19;28.08;;;15.55;;
28605;SDS011;46498;49.968;7.754;2022-11-15T06:09:38;28.60;;;16.02;;
28605;SDS011;46498;49.968;7.754;2022-11-15T06:14:58;25.42;;;15.90;;
28605;SDS011;46498;49.968;7.754;2022-11-15T06:20:17;32.28;;;16.50;;
28605;SDS011;46498;49.968;7.754;2022-11-15T06:25:37;27.25;;;16.75;;
28605;SDS011;46498;49.968;7.754;2022-11-15T06:31:02;30.42;;;16.37;;
28605;SDS011;46498;49.968;7.754;2022-11-15T06:36:25;24.37;;;15.00;;
28605;SDS011;46498;49.968;7.754;2022-11-15T06:41:44;29.05;;;16.60;;
28605;SDS011;46498;49.968;7.754;2022-11-15T06:47:04;28.65;;;16.50;;
28605;SDS011;46498;49.968;7.754;2022-11-15T06:52:24;33.38;;;17.37;;
28605;SDS011;46498;49.968;7.754;2022-11-15T06:57:47;30.37;;;17.15;;
28605;SDS011;46498;49.968;7.754;2022-11-15T07:03:07;33.90;;;17.37;;
28605;SDS011;46498;49.968;7.754;2022-11-15T07:08:28;32.35;;;16.62;;
28605;SDS011;46498;49.968;7.754;2022-11-15T07:13:48;27.35;;;16.60;;
28605;SDS011;46498;49.968;7.754;2022-11-15T07:19:08;31.58;;;17.15;;
28605;SDS011;46498;49.968;7.754;2022-11-15T07:24:28;33.63;;;17.70;;
28605;SDS011;46498;49.968;7.754;2022-11-15T07:29:48;29.40;;;17.30;;
28605;SDS011;46498;49.968;7.754;2022-11-15T07:35:08;32.78;;;17.65;;
28605;SDS011;46498;49.968;7.754;2022-11-15T07:40:28;29.67;;;17.23;;
28605;SDS011;46498;49.968;7.754;2022-11-15T07:45:50;33.70;;;17.20;;
28605;SDS011;46498;49.968;7.754;2022-11-15T07:51:17;25.73;;;15.65;;
28605;SDS011;46498;49.968;7.754;2022-11-15T07:56:37;29.45;;;14.77;;
28605;SDS011;46498;49.968;7.754;2022-11-15T08:01:58;24.50;;;14.48;;
28605;SDS011;46498;49.968;7.754;2022-11-15T08:07:18;22.90;;;13.75;;
28605;SDS011;46498;49.968;7.754;2022-11-15T08:12:37;25.52;;;14.73;;
28605;SDS011;46498;49.968;7.754;2022-11-15T08:17:57;24.55;;;14.00;;
28605;SDS011;46498;49.968;7.754;2022-11-15T08:23:19;18.25;;;11.32;;
28605;SDS011;46498;49.968;7.754;2022-11-15T08:28:39;18.92;;;11.18;;
28605;SDS011;46498;49.968;7.754;2022-11-15T08:33:59;21.60;;;13.23;;
28605;SDS011;46498;49.968;7.754;2022-11-15T08:39:19;22.45;;;12.00;;
28605;SDS011;46498;49.968;7.754;2022-11-15T08:44:39;22.05;;;11.12;;
28605;SDS011;46498;49.968;7.754;2022-11-15T08:49:58;17.25;;;11.38;;
28605;SDS011;46498;49.968;7.754;2022-11-15T08:55:18;17.62;;;10.45;;
28605;SDS011;46498;49.968;7.754;2022-11-15T09:00:38;16.15;;;9.88;;
28605;SDS011;46498;49.968;7.754;2022-11-15T09:05:58;19.83;;;10.57;;
28605;SDS011;46498;49.968;7.754;2022-11-15T09:11:19;14.18;;;9.23;;
28605;SDS011;46498;49.968;7.754;2022-11-15T09:16:41;16.80;;;10.07;;
28605;SDS011;46498;49.968;7.754;2022-11-15T09:22:00;16.02;;;9.40;;
28605;SDS011;46498;49.968;7.754;2022-11-15T09:27:20;16.60;;;8.95;;
28605;SDS011;46498;49.968;7.754;2022-11-15T09:32:39;13.45;;;8.77;;
28605;SDS011;46498;49.968;7.754;2022-11-15T09:37:59;13.43;;;9.02;;
28605;SDS011;46498;49.968;7.754;2022-11-15T09:43:25;13.95;;;8.82;;
28605;SDS011;46498;49.968;7.754;2022-11-15T09:50:29;13.57;;;9.00;;
28605;SDS011;46498;49.968;7.754;2022-11-15T09:55:39;16.70;;;9.70;;
28605;SDS011;46498;49.968;7.754;2022-11-15T10:00:49;15.73;;;10.15;;
28605;SDS011;46498;49.968;7.754;2022-11-15T10:05:54;18.25;;;9.27;;
28605;SDS011;46498;49.968;7.754;2022-11-15T10:10:59;17.25;;;11.23;;
28605;SDS011;46498;49.968;7.754;2022-11-15T10:25:16;19.98;;;12.20;;
28605;SDS011;46498;49.968;7.754;2022-11-15T10:30:19;18.77;;;11.03;;
28605;SDS011;46498;49.968;7.754;2022-11-15T10:35:28;24.23;;;15.98;;
28605;SDS011;46498;49.968;7.754;2022-11-15T10:40:31;38.28;;;21.48;;
28605;SDS011;46498;49.968;7.754;2022-11-15T10:45:32;16.73;;;10.95;;
28605;SDS011;46498;49.968;7.754;2022-11-15T10:50:34;14.27;;;10.02;;
28605;SDS011;46498;49.968;7.754;2022-11-15T10:55:35;13.90;;;9.13;;
28605;SDS011;46498;49.968;7.754;2022-11-15T11:00:48;17.55;;;8.75;;
28605;SDS011;46498;49.968;7.754;2022-11-15T11:05:49;16.98;;;10.10;;
28605;SDS011;46498;49.968;7.754;2022-11-15T11:11:04;16.75;;;8.13;;
28605;SDS011;46498;49.968;7.754;2022-11-15T11:16:43;11.38;;;8.02;;
28605;SDS011;46498;49.968;7.754;2022-11-15T11:41:49;10.35;;;6.68;;
28605;SDS011;46498;49.968;7.754;2022-11-15T11:52:29;12.00;;;7.60;;
28605;SDS011;46498;49.968;7.754;2022-11-15T12:17:29;16.17;;;9.93;;
28605;SDS011;46498;49.968;7.754;2022-11-15T12:22:42;12.52;;;8.98;;
28605;SDS011;46498;49.968;7.754;2022-11-15T12:27:56;15.13;;;9.18;;
28605;SDS011;46498;49.968;7.754;2022-11-15T12:33:37;15.60;;;8.50;;
28605;SDS011;46498;49.968;7.754;2022-11-15T12:43:56;17.08;;;9.40;;
28605;SDS011;46498;49.968;7.754;2022-11-15T12:49:03;20.08;;;9.32;;
28605;SDS011;46498;49.968;7.754;2022-11-15T12:57:40;25.40;;;9.18;;
28605;SDS011;46498;49.968;7.754;2022-11-15T13:02:42;12.52;;;8.57;;
28605;SDS011;46498;49.968;7.754;2022-11-15T13:13:07;25.25;;;13.98;;
28605;SDS011;46498;49.968;7.754;2022-11-15T13:18:25;14.07;;;8.73;;
28605;SDS011;46498;49.968;7.754;2022-11-15T13:23:30;16.42;;;9.70;;
28605;SDS011;46498;49.968;7.754;2022-11-15T13:28:36;15.27;;;9.18;;
28605;SDS011;46498;49.968;7.754;2022-11-15T13:33:42;15.95;;;9.43;;
28605;SDS011;46498;49.968;7.754;2022-11-15T13:38:43;15.38;;;8.93;;
28605;SDS011;46498;49.968;7.754;2022-11-15T13:43:44;17.65;;;8.18;;
28605;SDS011;46498;49.968;7.754;2022-11-15T13:48:46;19.35;;;9.52;;
28605;SDS011;46498;49.968;7.754;2022-11-15T13:53:54;17.55;;;8.80;;
28605;SDS011;46498;49.968;7.754;2022-11-15T13:58:58;13.02;;;7.87;;
28605;SDS011;46498;49.968;7.754;2022-11-15T14:03:59;13.68;;;7.50;;
28605;SDS011;46498;49.968;7.754;2022-11-15T14:15:30;15.98;;;8.65;;
28605;SDS011;46498;49.968;7.754;2022-11-15T14:20:37;15.27;;;9.05;;
28605;SDS011;46498;49.968;7.754;2022-11-15T14:25:39;17.98;;;10.20;;
28605;SDS011;46498;49.968;7.754;2022-11-15T14:30:40;19.83;;;10.60;;
28605;SDS011;46498;49.968;7.754;2022-11-15T14:35:43;18.98;;;11.85;;
28605;SDS011;46498;49.968;7.754;2022-11-15T14:40:44;19.15;;;11.82;;
28605;SDS011;46498;49.968;7.754;2022-11-15T14:45:45;21.30;;;12.90;;
28605;SDS011;46498;49.968;7.754;2022-11-15T14:50:46;19.58;;;12.88;;
28605;SDS011;46498;49.968;7.754;2022-11-15T14:55:47;26.62;;;14.13;;
28605;SDS011;46498;49.968;7.754;2022-11-15T15:00:48;23.55;;;14.15;;
28605;SDS011;46498;49.968;7.754;2022-11-15T15:05:48;24.55;;;14.35;;
28605;SDS011;46498;49.968;7.754;2022-11-15T15:10:49;22.98;;;13.38;;
28605;SDS011;46498;49.968;7.754;2022-11-15T15:15:52;22.52;;;14.05;;
28605;SDS011;46498;49.968;7.754;2022-11-15T15:20:58;24.02;;;14.70;;
28605;SDS011;46498;49.968;7.754;2022-11-15T15:26:03;25.52;;;14.98;;
28605;SDS011;46498;49.968;7.754;2022-11-15T15:31:04;24.75;;;14.90;;
28605;SDS011;46498;49.968;7.754;2022-11-15T15:36:07;32.33;;;16.08;;
28605;SDS011;46498;49.968;7.754;2022-11-15T15:41:12;25.83;;;16.20;;
28605;SDS011;46498;49.968;7.754;2022-11-15T15:46:15;28.70;;;16.20;;
28605;SDS011;46498;49.968;7.754;2022-11-15T15:51:18;27.15;;;15.55;;
28605;SDS011;46498;49.968;7.754;2022-11-15T15:56:21;24.50;;;15.65;;
28605;SDS011;46498;49.968;7.754;2022-11-15T16:01:22;24.80;;;15.70;;
28605;SDS011;46498;49.968;7.754;2022-11-15T16:06:36;27.35;;;14.98;;
28605;SDS011;46498;49.968;7.754;2022-11-15T16:11:40;23.08;;;14.15;;
28605;SDS011;46498;49.968;7.754;2022-11-15T16:16:42;23.70;;;14.95;;
28605;SDS011;46498;49.968;7.754;2022-11-15T16:21:42;23.08;;;15.20;;
28605;SDS011;46498;49.968;7.754;2022-11-15T16:26:43;25.45;;;14.35;;
28605;SDS011;46498;49.968;7.754;2022-11-15T16:31:45;23.95;;;14.57;;
28605;SDS011;46498;49.968;7.754;2022-11-15T16:36:46;34.47;;;16.08;;
28605;SDS011;46498;49.968;7.754;2022-11-15T16:41:48;25.12;;;15.23;;
28605;SDS011;46498;49.968;7.754;2022-11-15T16:46:49;25.62;;;15.52;;
28605;SDS011;46498;49.968;7.754;2022-11-15T16:51:51;26.03;;;16.30;;
28605;SDS011;46498;49.968;7.754;2022-11-15T16:56:52;28.52;;;15.38;;
28605;SDS011;46498;49.968;7.754;2022-11-15T17:01:53;24.98;;;15.98;;
28605;SDS011;46498;49.968;7.754;2022-11-15T17:06:54;25.62;;;14.87;;
28605;SDS011;46498;49.968;7.754;2022-11-15T17:11:55;27.30;;;15.80;;
28605;SDS011;46498;49.968;7.754;2022-11-15T17:16:56;20.15;;;13.98;;
28605;SDS011;46498;49.968;7.754;2022-11-15T17:21:56;28.05;;;15.43;;
28605;SDS011;46498;49.968;7.754;2022-11-15T17:26:57;22.13;;;14.63;;
28605;SDS011;46498;49.968;7.754;2022-11-15T17:31:58;24.00;;;15.25;;
28605;SDS011;46498;49.968;7.754;2022-11-15T17:36:59;23.27;;;14.55;;
28605;SDS011;46498;49.968;7.754;2022-11-15T17:42:00;22.25;;;14.10;;
28605;SDS011;46498;49.968;7.754;2022-11-15T17:47:01;20.92;;;13.10;;
28605;SDS011;46498;49.968;7.754;2022-11-15T17:52:02;18.98;;;12.80;;
28605;SDS011;46498;49.968;7.754;2022-11-15T17:57:03;23.23;;;12.75;;
28605;SDS011;46498;49.968;7.754;2022-11-15T18:02:04;20.62;;;11.02;;
28605;SDS011;46498;49.968;7.754;2022-11-15T18:07:05;16.37;;;10.07;;
28605;SDS011;46498;49.968;7.754;2022-11-15T18:12:06;13.93;;;9.30;;
28605;SDS011;46498;49.968;7.754;2022-11-15T18:17:07;16.05;;;8.88;;
28605;SDS011;46498;49.968;7.754;2022-11-15T18:22:08;16.60;;;8.88;;
28605;SDS011;46498;49.968;7.754;2022-11-15T18:27:09;16.65;;;8.30;;
28605;SDS011;46498;49.968;7.754;2022-11-15T18:32:10;13.75;;;8.15;;
28605;SDS011;46498;49.968;7.754;2022-11-15T18:37:14;16.37;;;7.90;;
28605;SDS011;46498;49.968;7.754;2022-11-15T18:42:15;46.78;;;17.35;;
28605;SDS011;46498;49.968;7.754;2022-11-15T18:47:16;19.12;;;9.27;;
28605;SDS011;46498;49.968;7.754;2022-11-15T18:52:16;13.18;;;7.87;;
28605;SDS011;46498;49.968;7.754;2022-11-15T18:57:17;15.13;;;9.70;;
28605;SDS011;46498;49.968;7.754;2022-11-15T19:02:18;14.40;;;9.20;;
28605;SDS011;46498;49.968;7.754;2022-11-15T19:07:19;13.70;;;7.95;;
28605;SDS011;46498;49.968;7.754;2022-11-15T19:12:21;15.15;;;8.32;;
28605;SDS011;46498;49.968;7.754;2022-11-15T19:17:21;13.02;;;7.30;;
28605;SDS011;46498;49.968;7.754;2022-11-15T19:22:22;14.80;;;7.68;;
28605;SDS011;46498;49.968;7.754;2022-11-15T19:27:23;12.00;;;7.62;;
28605;SDS011;46498;49.968;7.754;2022-11-15T19:32:24;14.02;;;8.20;;
28605;SDS011;46498;49.968;7.754;2022-11-15T19:37:24;14.45;;;7.78;;
28605;SDS011;46498;49.968;7.754;2022-11-15T19:42:25;13.38;;;7.60;;
28605;SDS011;46498;49.968;7.754;2022-11-15T19:47:26;17.92;;;8.32;;
28605;SDS011;46498;49.968;7.754;2022-11-15T19:52:27;12.65;;;8.50;;
28605;SDS011;46498;49.968;7.754;2022-11-15T19:57:28;15.45;;;8.55;;
28605;SDS011;46498;49.968;7.754;2022-11-15T20:02:29;15.27;;;9.02;;
28605;SDS011;46498;49.968;7.754;2022-11-15T20:07:30;14.48;;;8.80;;
28605;SDS011;46498;49.968;7.754;2022-11-15T20:12:31;18.48;;;8.00;;
28605;SDS011;46498;49.968;7.754;2022-11-15T20:17:34;20.73;;;10.07;;
28605;SDS011;46498;49.968;7.754;2022-11-15T20:22:34;17.20;;;9.63;;
28605;SDS011;46498;49.968;7.754;2022-11-15T20:27:35;18.58;;;9.82;;
28605;SDS011;46498;49.968;7.754;2022-11-15T20:32:36;21.85;;;10.27;;
28605;SDS011;46498;49.968;7.754;2022-11-15T20:37:37;21.50;;;10.13;;
28605;SDS011;46498;49.968;7.754;2022-11-15T20:42:38;16.55;;;9.35;;
28605;SDS011;46498;49.968;7.754;2022-11-15T20:47:39;22.00;;;11.05;;
28605;SDS011;46498;49.968;7.754;2022-11-15T20:52:39;18.15;;;11.40;;
28605;SDS011;46498;49.968;7.754;2022-11-15T20:57:40;21.42;;;11.48;;
28605;SDS011;46498;49.968;7.754;2022-11-15T21:02:41;19.52;;;11.63;;
28605;SDS011;46498;49.968;7.754;2022-11-15T21:07:42;59.97;;;26.52;;
28605;SDS011;46498;49.968;7.754;2022-11-15T21:12:43;74.22;;;30.73;;
28605;SDS011;46498;49.968;7.754;2022-11-15T21:17:44;53.10;;;26.20;;
28605;SDS011;46498;49.968;7.754;2022-11-15T21:22:45;31.05;;;16.52;;
28605;SDS011;46498;49.968;7.754;2022-11-15T21:27:46;23.80;;;12.88;;
28605;SDS011;46498;49.968;7.754;2022-11-15T21:32:47;20.45;;;12.13;;
28605;SDS011;46498;49.968;7.754;2022-11-15T21:37:48;20.83;;;12.27;;
28605;SDS011;46498;49.968;7.754;2022-11-15T21:42:56;24.83;;;14.38;;
28605;SDS011;46498;49.968;7.754;2022-11-15T21:47:57;25.52;;;14.30;;
28605;SDS011;46498;49.968;7.754;2022-11-15T21:52:58;26.00;;;14.98;;
28605;SDS011;46498;49.968;7.754;2022-11-15T21:57:59;24.08;;;13.27;;
28605;SDS011;46498;49.968;7.754;2022-11-15T22:03:00;23.77;;;13.20;;
28605;SDS011;46498;49.968;7.754;2022-11-15T22:08:01;25.35;;;13.38;;
28605;SDS011;46498;49.968;7.754;2022-11-15T22:13:01;26.73;;;13.80;;
28605;SDS011;46498;49.968;7.754;2022-11-15T22:18:03;25.00;;;12.32;;
28605;SDS011;46498;49.968;7.754;2022-11-15T22:23:04;26.80;;;14.38;;
28605;SDS011;46498;49.968;7.754;2022-11-15T22:28:06;25.23;;;12.33;;
28605;SDS011;46498;49.968;7.754;2022-11-15T22:33:07;22.87;;;13.23;;
28605;SDS011;46498;49.968;7.754;2022-11-15T22:38:08;20.70;;;11.98;;
28605;SDS011;46498;49.968;7.754;2022-11-15T22:43:10;22.00;;;12.00;;
28605;SDS011;46498;49.968;7.754;2022-11-15T22:48:16;21.02;;;12.35;;
28605;SDS011;46498;49.968;7.754;2022-11-15T22:53:17;23.10;;;12.23;;
28605;SDS011;46498;49.968;7.754;2022-11-15T22:58:19;20.65;;;12.75;;
28605;SDS011;46498;49.968;7.754;2022-11-15T23:03:21;22.10;;;12.13;;
28605;SDS011;46498;49.968;7.754;2022-11-15T23:08:23;21.83;;;12.70;;
28605;SDS011;46498;49.968;7.754;2022-11-15T23:13:25;26.42;;;11.70;;
28605;SDS011;46498;49.968;7.754;2022-11-15T23:18:28;27.55;;;13.93;;
28605;SDS011;46498;49.968;7.754;2022-11-15T23:23:33;19.50;;;13.00;;
28605;SDS011;46498;49.968;7.754;2022-11-15T23:28:34;23.95;;;15.10;;
28605;SDS011;46498;49.968;7.754;2022-11-15T23:33:36;26.58;;;15.73;;
28605;SDS011;46498;49.968;7.754;2022-11-15T23:38:56;36.40;;;17.75;;
28605;SDS011;46498;49.968;7.754;2022-11-15T23:43:58;29.92;;;17.40;;
28605;SDS011;46498;49.968;7.754;2022-11-15T23:48:59;23.83;;;15.45;;
28605;SDS011;46498;49.968;7.754;2022-11-15T23:54:00;26.65;;;14.87;;
28605;SDS011;46498;49.968;7.754;2022-11-15T23:59:04;25.52;;;14.23;;
